sensor_id;sensor_type;location;lat;lon;timestamp;pressure;altitude;pressure_sealevel;temperature;humidity
56825;BME280;42705;50.326;18.772;2023-03-03T00:05:00;98734.09;;;1.21;60.42
56825;BME280;42705;50.326;18.772;2023-03-03T00:10:22;98731.30;;;1.14;60.51
56825;BME280;42705;50.326;18.772;2023-03-03T00:15:44;98730.21;;;1.04;60.34
56825;BME280;42705;50.326;18.772;2023-03-03T00:22:01;98726.84;;;0.99;60.62
56825;BME280;42705;50.326;18.772;2023-03-03T00:27:01;98723.92;;;0.99;60.85
56825;BME280;42705;50.326;18.772;2023-03-03T00:32:43;98718.39;;;0.96;60.89
56825;BME280;42705;50.326;18.772;2023-03-03T00:38:16;98721.05;;;0.91;60.91
56825;BME280;42705;50.326;18.772;2023-03-03T00:43:39;98722.36;;;0.81;60.85
56825;BME280;42705;50.326;18.772;2023-03-03T00:49:04;98724.45;;;0.73;60.90
56825;BME280;42705;50.326;18.772;2023-03-03T00:54:40;98722.98;;;0.71;61.17
56825;BME280;42705;50.326;18.772;2023-03-03T01:00:03;98720.90;;;0.68;61.37
56825;BME280;42705;50.326;18.772;2023-03-03T01:05:26;98717.27;;;0.60;61.64
56825;BME280;42705;50.326;18.772;2023-03-03T01:10:53;98717.49;;;0.52;61.63
56825;BME280;42705;50.326;18.772;2023-03-03T01:16:16;98714.63;;;0.47;61.69
56825;BME280;42705;50.326;18.772;2023-03-03T01:21:38;98705.26;;;0.49;61.89
56825;BME280;42705;50.326;18.772;2023-03-03T01:27:00;98700.97;;;0.52;62.05
56825;BME280;42705;50.326;18.772;2023-03-03T01:32:26;98696.72;;;0.51;62.00
56825;BME280;42705;50.326;18.772;2023-03-03T01:37:48;98685.73;;;0.43;61.84
56825;BME280;42705;50.326;18.772;2023-03-03T01:43:14;98683.80;;;0.37;61.90
56825;BME280;42705;50.326;18.772;2023-03-03T01:48:39;98674.23;;;0.36;61.99
56825;BME280;42705;50.326;18.772;2023-03-03T01:54:06;98662.78;;;0.38;62.29
56825;BME280;42705;50.326;18.772;2023-03-03T01:59:36;98670.11;;;0.35;62.17
56825;BME280;42705;50.326;18.772;2023-03-03T02:05:01;98673.98;;;0.22;61.97
56825;BME280;42705;50.326;18.772;2023-03-03T02:16:40;98682.44;;;-0.07;62.25
56825;BME280;42705;50.326;18.772;2023-03-03T02:22:04;98684.64;;;-0.10;62.34
56825;BME280;42705;50.326;18.772;2023-03-03T02:27:27;98686.95;;;-0.08;62.45
56825;BME280;42705;50.326;18.772;2023-03-03T02:32:52;98690.98;;;-0.10;62.60
56825;BME280;42705;50.326;18.772;2023-03-03T02:38:48;98703.17;;;-0.18;62.95
56825;BME280;42705;50.326;18.772;2023-03-03T02:44:08;98704.39;;;-0.34;62.88
56825;BME280;42705;50.326;18.772;2023-03-03T02:49:33;98702.95;;;-0.41;63.30
56825;BME280;42705;50.326;18.772;2023-03-03T02:54:56;98702.52;;;-0.35;63.92
56825;BME280;42705;50.326;18.772;2023-03-03T03:00:18;98700.73;;;-0.33;63.84
56825;BME280;42705;50.326;18.772;2023-03-03T03:05:42;98692.35;;;-0.33;63.86
56825;BME280;42705;50.326;18.772;2023-03-03T03:11:05;98691.30;;;-0.29;63.92
56825;BME280;42705;50.326;18.772;2023-03-03T03:16:28;98683.90;;;-0.25;63.88
56825;BME280;42705;50.326;18.772;2023-03-03T03:21:50;98681.22;;;-0.30;64.04
56825;BME280;42705;50.326;18.772;2023-03-03T03:27:13;98682.23;;;-0.54;63.82
56825;BME280;42705;50.326;18.772;2023-03-03T03:32:35;98679.05;;;-0.86;63.82
56825;BME280;42705;50.326;18.772;2023-03-03T03:37:57;98669.44;;;-1.03;64.15
56825;BME280;42705;50.326;18.772;2023-03-03T03:43:19;98666.39;;;-1.04;64.60
56825;BME280;42705;50.326;18.772;2023-03-03T03:48:42;98656.23;;;-0.98;64.68
56825;BME280;42705;50.326;18.772;2023-03-03T03:54:04;98669.73;;;-0.93;64.53
56825;BME280;42705;50.326;18.772;2023-03-03T03:59:29;98674.86;;;-1.01;64.59
56825;BME280;42705;50.326;18.772;2023-03-03T04:04:51;98679.02;;;-1.16;64.40
56825;BME280;42705;50.326;18.772;2023-03-03T04:10:13;98676.13;;;-1.21;64.64
56825;BME280;42705;50.326;18.772;2023-03-03T04:15:35;98678.77;;;-1.26;64.80
56825;BME280;42705;50.326;18.772;2023-03-03T04:20:58;98676.13;;;-1.34;65.00
56825;BME280;42705;50.326;18.772;2023-03-03T04:26:21;98676.66;;;-1.39;65.05
56825;BME280;42705;50.326;18.772;2023-03-03T04:31:44;98688.98;;;-1.38;64.91
56825;BME280;42705;50.326;18.772;2023-03-03T04:37:07;98691.41;;;-1.43;65.17
56825;BME280;42705;50.326;18.772;2023-03-03T04:42:29;98686.53;;;-1.51;65.32
56825;BME280;42705;50.326;18.772;2023-03-03T04:47:51;98682.70;;;-1.58;65.37
56825;BME280;42705;50.326;18.772;2023-03-03T04:53:14;98693.10;;;-1.66;65.04
56825;BME280;42705;50.326;18.772;2023-03-03T04:58:36;98698.34;;;-1.92;64.97
56825;BME280;42705;50.326;18.772;2023-03-03T05:03:58;98694.67;;;-2.20;65.10
56825;BME280;42705;50.326;18.772;2023-03-03T05:09:20;98713.67;;;-2.40;65.26
56825;BME280;42705;50.326;18.772;2023-03-03T05:14:42;98715.02;;;-2.55;65.47
56825;BME280;42705;50.326;18.772;2023-03-03T05:20:05;98720.66;;;-2.65;65.63
56825;BME280;42705;50.326;18.772;2023-03-03T05:25:28;98722.36;;;-2.81;65.84
56825;BME280;42705;50.326;18.772;2023-03-03T05:30:51;98736.77;;;-3.05;65.98
56825;BME280;42705;50.326;18.772;2023-03-03T05:36:12;98738.34;;;-3.23;66.34
56825;BME280;42705;50.326;18.772;2023-03-03T05:41:34;98744.65;;;-3.16;66.86
56825;BME280;42705;50.326;18.772;2023-03-03T05:46:57;98754.17;;;-3.15;67.12
56825;BME280;42705;50.326;18.772;2023-03-03T05:52:19;98757.48;;;-3.17;67.18
56825;BME280;42705;50.326;18.772;2023-03-03T05:57:42;98769.29;;;-3.23;67.23
56825;BME280;42705;50.326;18.772;2023-03-03T06:03:04;98779.94;;;-3.18;67.47
56825;BME280;42705;50.326;18.772;2023-03-03T06:08:26;98793.10;;;-3.25;67.43
56825;BME280;42705;50.326;18.772;2023-03-03T06:13:48;98787.84;;;-3.32;67.94
56825;BME280;42705;50.326;18.772;2023-03-03T06:19:10;98766.02;;;-3.22;68.49
56825;BME280;42705;50.326;18.772;2023-03-03T06:24:32;98780.95;;;-3.07;68.21
56825;BME280;42705;50.326;18.772;2023-03-03T06:29:54;98782.02;;;-3.03;68.30
56825;BME280;42705;50.326;18.772;2023-03-03T06:35:16;98800.70;;;-2.98;68.41
56825;BME280;42705;50.326;18.772;2023-03-03T06:40:38;98793.60;;;-2.96;68.48
56825;BME280;42705;50.326;18.772;2023-03-03T06:46:01;98795.85;;;-2.80;68.72
56825;BME280;42705;50.326;18.772;2023-03-03T06:51:26;98788.52;;;-2.64;68.97
56825;BME280;42705;50.326;18.772;2023-03-03T06:56:57;98794.27;;;-2.51;69.00
56825;BME280;42705;50.326;18.772;2023-03-03T07:02:20;98801.71;;;-2.43;68.66
56825;BME280;42705;50.326;18.772;2023-03-03T07:07:42;98777.15;;;-2.35;68.97
56825;BME280;42705;50.326;18.772;2023-03-03T07:13:25;98774.89;;;-2.18;69.12
56825;BME280;42705;50.326;18.772;2023-03-03T07:18:54;98778.03;;;-1.95;69.07
56825;BME280;42705;50.326;18.772;2023-03-03T07:24:28;98800.52;;;-1.77;68.96
56825;BME280;42705;50.326;18.772;2023-03-03T07:29:52;98815.73;;;-1.70;68.95
56825;BME280;42705;50.326;18.772;2023-03-03T07:41:00;98804.84;;;-1.68;68.98
56825;BME280;42705;50.326;18.772;2023-03-03T07:46:26;98801.95;;;-1.68;68.81
56825;BME280;42705;50.326;18.772;2023-03-03T07:51:56;98835.05;;;-1.64;69.01
56825;BME280;42705;50.326;18.772;2023-03-03T07:57:24;98836.21;;;-1.68;69.08
56825;BME280;42705;50.326;18.772;2023-03-03T08:02:57;98824.73;;;-1.73;69.38
56825;BME280;42705;50.326;18.772;2023-03-03T08:08:28;98816.80;;;-1.47;69.87
56825;BME280;42705;50.326;18.772;2023-03-03T08:13:51;98822.23;;;-1.22;69.97
56825;BME280;42705;50.326;18.772;2023-03-03T08:19:16;98814.50;;;-1.08;69.66
56825;BME280;42705;50.326;18.772;2023-03-03T08:24:39;98817.41;;;-1.03;69.48
56825;BME280;42705;50.326;18.772;2023-03-03T08:30:00;98822.98;;;-0.91;69.39
56825;BME280;42705;50.326;18.772;2023-03-03T08:35:22;98834.94;;;-0.90;69.35
56825;BME280;42705;50.326;18.772;2023-03-03T08:40:45;98843.18;;;-0.90;69.22
56825;BME280;42705;50.326;18.772;2023-03-03T08:46:07;98833.39;;;-0.81;69.76
56825;BME280;42705;50.326;18.772;2023-03-03T08:51:30;98823.95;;;-0.76;69.55
56825;BME280;42705;50.326;18.772;2023-03-03T08:56:55;98823.43;;;-0.71;69.79
56825;BME280;42705;50.326;18.772;2023-03-03T09:02:17;98813.24;;;-0.66;69.84
56825;BME280;42705;50.326;18.772;2023-03-03T09:07:39;98815.02;;;-0.63;69.68
56825;BME280;42705;50.326;18.772;2023-03-03T09:13:06;98820.35;;;-0.72;69.64
56825;BME280;42705;50.326;18.772;2023-03-03T09:18:36;98818.32;;;-0.72;69.77
56825;BME280;42705;50.326;18.772;2023-03-03T09:23:58;98821.42;;;-0.73;70.05
56825;BME280;42705;50.326;18.772;2023-03-03T09:29:29;98808.44;;;-0.70;69.96
56825;BME280;42705;50.326;18.772;2023-03-03T09:34:52;98807.33;;;-0.77;70.27
56825;BME280;42705;50.326;18.772;2023-03-03T09:40:55;98811.48;;;-0.73;70.53
56825;BME280;42705;50.326;18.772;2023-03-03T09:58:14;98826.30;;;-0.62;70.69
56825;BME280;42705;50.326;18.772;2023-03-03T10:21:07;98846.31;;;-0.42;70.90
56825;BME280;42705;50.326;18.772;2023-03-03T10:26:36;98852.50;;;-0.38;70.64
56825;BME280;42705;50.326;18.772;2023-03-03T10:32:26;98850.55;;;-0.36;70.81
56825;BME280;42705;50.326;18.772;2023-03-03T10:44:07;98841.52;;;-0.29;70.86
56825;BME280;42705;50.326;18.772;2023-03-03T10:49:46;98846.27;;;-0.24;70.83
56825;BME280;42705;50.326;18.772;2023-03-03T10:55:37;98847.43;;;-0.23;70.62
56825;BME280;42705;50.326;18.772;2023-03-03T11:01:20;98844.35;;;-0.14;70.51
56825;BME280;42705;50.326;18.772;2023-03-03T11:12:38;98845.55;;;-0.10;70.12
56825;BME280;42705;50.326;18.772;2023-03-03T11:24:22;98833.14;;;-0.13;70.18
56825;BME280;42705;50.326;18.772;2023-03-03T11:40:49;98818.77;;;-0.06;69.91
56825;BME280;42705;50.326;18.772;2023-03-03T11:46:35;98815.52;;;-0.02;69.86
56825;BME280;42705;50.326;18.772;2023-03-03T11:57:40;98827.31;;;0.11;69.94
56825;BME280;42705;50.326;18.772;2023-03-03T12:31:38;98814.60;;;0.40;69.65
56825;BME280;42705;50.326;18.772;2023-03-03T12:42:40;98798.52;;;0.50;69.36
56825;BME280;42705;50.326;18.772;2023-03-03T12:59:59;98786.55;;;0.64;68.66
56825;BME280;42705;50.326;18.772;2023-03-03T13:17:26;98787.41;;;0.80;68.09
56825;BME280;42705;50.326;18.772;2023-03-03T13:23:02;98785.33;;;0.73;67.78
56825;BME280;42705;50.326;18.772;2023-03-03T13:35:02;98785.59;;;0.63;67.99
56825;BME280;42705;50.326;18.772;2023-03-03T13:40:47;98784.09;;;0.70;67.66
56825;BME280;42705;50.326;18.772;2023-03-03T13:46:30;98781.94;;;0.75;67.67
56825;BME280;42705;50.326;18.772;2023-03-03T13:52:09;98777.92;;;0.72;67.35
56825;BME280;42705;50.326;18.772;2023-03-03T14:09:11;98784.95;;;0.57;67.07
56825;BME280;42705;50.326;18.772;2023-03-03T14:20:33;98779.38;;;0.48;66.97
56825;BME280;42705;50.326;18.772;2023-03-03T14:31:29;98774.50;;;0.53;67.24
56825;BME280;42705;50.326;18.772;2023-03-03T14:36:59;98776.84;;;0.50;67.23
56825;BME280;42705;50.326;18.772;2023-03-03T14:53:41;98766.94;;;0.21;67.17
56825;BME280;42705;50.326;18.772;2023-03-03T14:59:18;98775.62;;;0.15;67.16
56825;BME280;42705;50.326;18.772;2023-03-03T15:04:42;98769.17;;;0.06;67.32
56825;BME280;42705;50.326;18.772;2023-03-03T15:10:05;98759.60;;;-0.08;67.41
56825;BME280;42705;50.326;18.772;2023-03-03T15:15:28;98761.10;;;-0.15;67.77
56825;BME280;42705;50.326;18.772;2023-03-03T15:21:12;98755.53;;;-0.09;68.27
56825;BME280;42705;50.326;18.772;2023-03-03T15:27:01;98759.15;;;-0.18;68.18
56825;BME280;42705;50.326;18.772;2023-03-03T15:32:41;98752.08;;;-0.21;68.54
56825;BME280;42705;50.326;18.772;2023-03-03T15:39:02;98753.73;;;-0.15;68.78
56825;BME280;42705;50.326;18.772;2023-03-03T15:44:28;98753.88;;;-0.11;69.16
56825;BME280;42705;50.326;18.772;2023-03-03T15:55:49;98749.63;;;-0.20;68.91
56825;BME280;42705;50.326;18.772;2023-03-03T16:12:51;98760.66;;;-0.38;69.62
56825;BME280;42705;50.326;18.772;2023-03-03T16:36:28;98760.33;;;-0.34;70.01
56825;BME280;42705;50.326;18.772;2023-03-03T16:42:25;98756.73;;;-0.34;70.27
56825;BME280;42705;50.326;18.772;2023-03-03T16:48:02;98759.45;;;-0.29;70.51
56825;BME280;42705;50.326;18.772;2023-03-03T16:54:02;98764.75;;;-0.24;70.69
56825;BME280;42705;50.326;18.772;2023-03-03T16:59:59;98764.63;;;-0.30;70.42
56825;BME280;42705;50.326;18.772;2023-03-03T17:28:07;98785.14;;;-0.53;71.05
56825;BME280;42705;50.326;18.772;2023-03-03T17:39:43;98780.59;;;-0.47;71.08
56825;BME280;42705;50.326;18.772;2023-03-03T17:45:13;98779.61;;;-0.52;71.02
56825;BME280;42705;50.326;18.772;2023-03-03T17:50:44;98783.20;;;-0.56;71.19
56825;BME280;42705;50.326;18.772;2023-03-03T17:56:35;98788.19;;;-0.65;71.47
56825;BME280;42705;50.326;18.772;2023-03-03T18:02:14;98782.37;;;-0.74;71.83
56825;BME280;42705;50.326;18.772;2023-03-03T18:13:23;98780.49;;;-0.88;72.06
56825;BME280;42705;50.326;18.772;2023-03-03T18:24:33;98795.48;;;-0.90;72.69
56825;BME280;42705;50.326;18.772;2023-03-03T18:30:24;98793.67;;;-0.87;72.71
56825;BME280;42705;50.326;18.772;2023-03-03T18:35:47;98790.89;;;-0.85;72.57
56825;BME280;42705;50.326;18.772;2023-03-03T18:41:12;98786.41;;;-0.90;72.81
56825;BME280;42705;50.326;18.772;2023-03-03T18:52:21;98775.42;;;-0.99;72.94
56825;BME280;42705;50.326;18.772;2023-03-03T18:58:01;98775.04;;;-1.07;73.12
56825;BME280;42705;50.326;18.772;2023-03-03T19:09:11;98778.34;;;-1.17;73.79
56825;BME280;42705;50.326;18.772;2023-03-03T19:14:56;98776.65;;;-1.18;73.95
56825;BME280;42705;50.326;18.772;2023-03-03T19:20:22;98779.42;;;-1.14;74.22
56825;BME280;42705;50.326;18.772;2023-03-03T19:25:45;98774.55;;;-1.12;74.06
56825;BME280;42705;50.326;18.772;2023-03-03T19:31:20;98778.66;;;-1.08;74.06
56825;BME280;42705;50.326;18.772;2023-03-03T19:42:44;98770.81;;;-1.08;74.22
56825;BME280;42705;50.326;18.772;2023-03-03T20:05:52;98767.64;;;-0.97;74.70
56825;BME280;42705;50.326;18.772;2023-03-03T20:11:44;98768.55;;;-0.90;74.49
56825;BME280;42705;50.326;18.772;2023-03-03T20:34:21;98772.45;;;-1.02;74.75
56825;BME280;42705;50.326;18.772;2023-03-03T20:40:26;98771.06;;;-1.01;74.85
56825;BME280;42705;50.326;18.772;2023-03-03T20:51:43;98764.05;;;-1.02;74.94
56825;BME280;42705;50.326;18.772;2023-03-03T20:57:30;98751.34;;;-1.01;74.77
56825;BME280;42705;50.326;18.772;2023-03-03T21:14:15;98742.76;;;-1.01;74.94
56825;BME280;42705;50.326;18.772;2023-03-03T21:19:37;98733.85;;;-1.01;74.92
56825;BME280;42705;50.326;18.772;2023-03-03T21:24:59;98726.81;;;-1.01;75.10
56825;BME280;42705;50.326;18.772;2023-03-03T21:30:21;98728.69;;;-1.05;75.07
56825;BME280;42705;50.326;18.772;2023-03-03T21:35:56;98729.78;;;-1.03;75.35
56825;BME280;42705;50.326;18.772;2023-03-03T21:41:20;98724.50;;;-0.99;75.43
56825;BME280;42705;50.326;18.772;2023-03-03T21:46:41;98714.21;;;-0.99;75.33
56825;BME280;42705;50.326;18.772;2023-03-03T21:52:04;98706.09;;;-0.97;75.12
56825;BME280;42705;50.326;18.772;2023-03-03T21:57:26;98702.00;;;-0.98;75.07
56825;BME280;42705;50.326;18.772;2023-03-03T22:02:48;98696.02;;;-0.99;75.19
56825;BME280;42705;50.326;18.772;2023-03-03T22:08:10;98686.36;;;-1.01;75.37
56825;BME280;42705;50.326;18.772;2023-03-03T22:13:33;98675.41;;;-1.02;75.37
56825;BME280;42705;50.326;18.772;2023-03-03T22:18:55;98664.25;;;-1.06;75.61
56825;BME280;42705;50.326;18.772;2023-03-03T22:24:17;98652.56;;;-1.09;75.77
56825;BME280;42705;50.326;18.772;2023-03-03T22:29:39;98646.92;;;-1.10;75.56
56825;BME280;42705;50.326;18.772;2023-03-03T22:35:01;98645.53;;;-1.14;75.81
56825;BME280;42705;50.326;18.772;2023-03-03T22:40:23;98639.44;;;-1.11;75.81
56825;BME280;42705;50.326;18.772;2023-03-03T22:45:45;98629.41;;;-1.09;75.88
56825;BME280;42705;50.326;18.772;2023-03-03T22:51:07;98630.00;;;-1.11;75.89
56825;BME280;42705;50.326;18.772;2023-03-03T22:56:29;98615.19;;;-1.09;76.07
56825;BME280;42705;50.326;18.772;2023-03-03T23:01:50;98618.35;;;-1.11;75.90
56825;BME280;42705;50.326;18.772;2023-03-03T23:07:12;98626.40;;;-1.11;75.91
56825;BME280;42705;50.326;18.772;2023-03-03T23:12:34;98629.46;;;-1.11;76.08
56825;BME280;42705;50.326;18.772;2023-03-03T23:17:56;98617.41;;;-1.18;76.13
56825;BME280;42705;50.326;18.772;2023-03-03T23:23:18;98602.02;;;-1.19;76.17
56825;BME280;42705;50.326;18.772;2023-03-03T23:28:40;98599.30;;;-1.24;76.46
56825;BME280;42705;50.326;18.772;2023-03-03T23:34:02;98601.72;;;-1.24;76.51
56825;BME280;42705;50.326;18.772;2023-03-03T23:39:24;98604.89;;;-1.22;76.70
56825;BME280;42705;50.326;18.772;2023-03-03T23:44:45;98602.19;;;-1.23;76.50
56825;BME280;42705;50.326;18.772;2023-03-03T23:50:09;98596.31;;;-1.22;76.80
56825;BME280;42705;50.326;18.772;2023-03-03T23:55:32;98588.04;;;-1.25;76.97
